sensor_id;sensor_type;location;lat;lon;timestamp;P1;durP1;ratioP1;P2;durP2;ratioP2
16826;SDS011;8530;49.540;8.576;2022-11-02T00:01:14;12.03;;;3.47;;
16826;SDS011;8530;49.540;8.576;2022-11-02T00:03:45;12.77;;;3.70;;
16826;SDS011;8530;49.540;8.576;2022-11-02T00:06:14;8.10;;;3.03;;
16826;SDS011;8530;49.540;8.576;2022-11-02T00:08:40;15.57;;;4.33;;
16826;SDS011;8530;49.540;8.576;2022-11-02T00:11:07;10.87;;;3.73;;
16826;SDS011;8530;49.540;8.576;2022-11-02T00:13:34;11.83;;;5.80;;
16826;SDS011;8530;49.540;8.576;2022-11-02T00:16:01;15.00;;;4.47;;
16826;SDS011;8530;49.540;8.576;2022-11-02T00:18:29;12.83;;;4.80;;
16826;SDS011;8530;49.540;8.576;2022-11-02T00:20:57;12.23;;;5.10;;
16826;SDS011;8530;49.540;8.576;2022-11-02T00:23:26;11.07;;;4.80;;
16826;SDS011;8530;49.540;8.576;2022-11-02T00:25:53;9.60;;;4.30;;
16826;SDS011;8530;49.540;8.576;2022-11-02T00:28:21;12.60;;;4.50;;
16826;SDS011;8530;49.540;8.576;2022-11-02T00:30:48;10.53;;;5.03;;
16826;SDS011;8530;49.540;8.576;2022-11-02T00:33:15;7.37;;;3.93;;
16826;SDS011;8530;49.540;8.576;2022-11-02T00:35:42;8.57;;;3.90;;
16826;SDS011;8530;49.540;8.576;2022-11-02T00:38:09;4.90;;;3.10;;
16826;SDS011;8530;49.540;8.576;2022-11-02T00:40:38;7.10;;;3.80;;
16826;SDS011;8530;49.540;8.576;2022-11-02T00:43:04;11.97;;;3.67;;
16826;SDS011;8530;49.540;8.576;2022-11-02T00:45:31;15.10;;;3.50;;
16826;SDS011;8530;49.540;8.576;2022-11-02T00:47:58;13.37;;;3.93;;
16826;SDS011;8530;49.540;8.576;2022-11-02T00:50:25;4.60;;;3.60;;
16826;SDS011;8530;49.540;8.576;2022-11-02T00:52:52;10.70;;;3.87;;
16826;SDS011;8530;49.540;8.576;2022-11-02T00:55:19;5.13;;;3.23;;
16826;SDS011;8530;49.540;8.576;2022-11-02T00:57:47;6.00;;;3.43;;
16826;SDS011;8530;49.540;8.576;2022-11-02T01:00:14;8.43;;;4.60;;
16826;SDS011;8530;49.540;8.576;2022-11-02T01:02:42;7.47;;;3.50;;
16826;SDS011;8530;49.540;8.576;2022-11-02T01:05:09;8.80;;;3.77;;
16826;SDS011;8530;49.540;8.576;2022-11-02T01:07:36;11.93;;;4.70;;
16826;SDS011;8530;49.540;8.576;2022-11-02T01:10:04;8.23;;;4.83;;
16826;SDS011;8530;49.540;8.576;2022-11-02T01:12:31;8.97;;;4.00;;
16826;SDS011;8530;49.540;8.576;2022-11-02T01:14:59;7.00;;;3.77;;
16826;SDS011;8530;49.540;8.576;2022-11-02T01:17:27;7.03;;;4.47;;
16826;SDS011;8530;49.540;8.576;2022-11-02T01:19:54;10.30;;;4.23;;
16826;SDS011;8530;49.540;8.576;2022-11-02T01:22:21;11.17;;;3.50;;
16826;SDS011;8530;49.540;8.576;2022-11-02T01:24:47;16.13;;;3.90;;
16826;SDS011;8530;49.540;8.576;2022-11-02T01:27:14;17.97;;;5.33;;
16826;SDS011;8530;49.540;8.576;2022-11-02T01:29:41;6.40;;;3.60;;
16826;SDS011;8530;49.540;8.576;2022-11-02T01:32:09;12.37;;;3.93;;
16826;SDS011;8530;49.540;8.576;2022-11-02T01:34:37;8.10;;;4.00;;
16826;SDS011;8530;49.540;8.576;2022-11-02T01:37:03;15.20;;;4.00;;
16826;SDS011;8530;49.540;8.576;2022-11-02T01:39:30;9.53;;;3.37;;
16826;SDS011;8530;49.540;8.576;2022-11-02T01:41:57;10.63;;;3.17;;
16826;SDS011;8530;49.540;8.576;2022-11-02T01:44:25;9.47;;;3.80;;
16826;SDS011;8530;49.540;8.576;2022-11-02T01:46:55;10.50;;;3.30;;
16826;SDS011;8530;49.540;8.576;2022-11-02T01:49:26;4.83;;;3.10;;
16826;SDS011;8530;49.540;8.576;2022-11-02T01:51:55;8.40;;;3.90;;
16826;SDS011;8530;49.540;8.576;2022-11-02T01:54:25;10.93;;;4.50;;
16826;SDS011;8530;49.540;8.576;2022-11-02T01:56:55;15.17;;;4.37;;
16826;SDS011;8530;49.540;8.576;2022-11-02T01:59:26;6.73;;;3.60;;
16826;SDS011;8530;49.540;8.576;2022-11-02T02:01:56;11.33;;;3.17;;
16826;SDS011;8530;49.540;8.576;2022-11-02T02:04:22;9.50;;;3.30;;
16826;SDS011;8530;49.540;8.576;2022-11-02T02:06:53;7.93;;;4.47;;
16826;SDS011;8530;49.540;8.576;2022-11-02T02:09:23;8.37;;;3.90;;
16826;SDS011;8530;49.540;8.576;2022-11-02T02:11:51;13.33;;;3.43;;
16826;SDS011;8530;49.540;8.576;2022-11-02T02:14:18;12.23;;;4.60;;
16826;SDS011;8530;49.540;8.576;2022-11-02T02:16:50;8.03;;;3.47;;
16826;SDS011;8530;49.540;8.576;2022-11-02T02:19:34;11.20;;;4.00;;
16826;SDS011;8530;49.540;8.576;2022-11-02T02:22:17;10.33;;;4.10;;
16826;SDS011;8530;49.540;8.576;2022-11-02T02:25:05;6.07;;;3.53;;
16826;SDS011;8530;49.540;8.576;2022-11-02T02:27:53;11.20;;;3.60;;
16826;SDS011;8530;49.540;8.576;2022-11-02T02:30:32;11.80;;;3.83;;
16826;SDS011;8530;49.540;8.576;2022-11-02T02:33:05;18.27;;;4.90;;
16826;SDS011;8530;49.540;8.576;2022-11-02T02:35:38;17.70;;;4.60;;
16826;SDS011;8530;49.540;8.576;2022-11-02T02:38:09;6.67;;;3.97;;
16826;SDS011;8530;49.540;8.576;2022-11-02T02:40:42;6.90;;;3.73;;
16826;SDS011;8530;49.540;8.576;2022-11-02T02:43:17;9.13;;;4.50;;
16826;SDS011;8530;49.540;8.576;2022-11-02T02:45:51;16.60;;;5.50;;
16826;SDS011;8530;49.540;8.576;2022-11-02T02:48:23;6.73;;;3.30;;
16826;SDS011;8530;49.540;8.576;2022-11-02T02:50:52;7.67;;;4.13;;
16826;SDS011;8530;49.540;8.576;2022-11-02T02:53:26;20.53;;;4.20;;
16826;SDS011;8530;49.540;8.576;2022-11-02T02:55:56;9.27;;;4.20;;
16826;SDS011;8530;49.540;8.576;2022-11-02T02:58:26;7.83;;;4.20;;
16826;SDS011;8530;49.540;8.576;2022-11-02T03:00:57;7.80;;;3.90;;
16826;SDS011;8530;49.540;8.576;2022-11-02T03:03:26;21.93;;;4.60;;
16826;SDS011;8530;49.540;8.576;2022-11-02T03:05:58;7.10;;;4.27;;
16826;SDS011;8530;49.540;8.576;2022-11-02T03:08:30;9.17;;;3.73;;
16826;SDS011;8530;49.540;8.576;2022-11-02T03:11:00;11.97;;;5.10;;
16826;SDS011;8530;49.540;8.576;2022-11-02T03:13:39;16.43;;;4.47;;
16826;SDS011;8530;49.540;8.576;2022-11-02T03:16:15;8.00;;;4.13;;
16826;SDS011;8530;49.540;8.576;2022-11-02T03:18:47;15.30;;;4.13;;
16826;SDS011;8530;49.540;8.576;2022-11-02T03:21:19;13.90;;;3.77;;
16826;SDS011;8530;49.540;8.576;2022-11-02T03:23:53;8.83;;;3.57;;
16826;SDS011;8530;49.540;8.576;2022-11-02T03:26:26;17.40;;;4.27;;
16826;SDS011;8530;49.540;8.576;2022-11-02T03:29:00;6.90;;;3.20;;
16826;SDS011;8530;49.540;8.576;2022-11-02T03:31:33;17.33;;;4.10;;
16826;SDS011;8530;49.540;8.576;2022-11-02T03:34:04;12.50;;;3.97;;
16826;SDS011;8530;49.540;8.576;2022-11-02T03:36:42;11.47;;;4.40;;
16826;SDS011;8530;49.540;8.576;2022-11-02T03:39:13;13.70;;;4.40;;
16826;SDS011;8530;49.540;8.576;2022-11-02T03:41:43;15.80;;;4.43;;
16826;SDS011;8530;49.540;8.576;2022-11-02T03:44:15;10.80;;;4.50;;
16826;SDS011;8530;49.540;8.576;2022-11-02T03:46:46;10.53;;;5.00;;
16826;SDS011;8530;49.540;8.576;2022-11-02T03:49:17;12.07;;;4.67;;
16826;SDS011;8530;49.540;8.576;2022-11-02T03:51:45;10.73;;;3.80;;
16826;SDS011;8530;49.540;8.576;2022-11-02T03:54:15;8.00;;;4.20;;
16826;SDS011;8530;49.540;8.576;2022-11-02T03:56:47;8.80;;;3.97;;
16826;SDS011;8530;49.540;8.576;2022-11-02T03:59:17;7.83;;;3.90;;
16826;SDS011;8530;49.540;8.576;2022-11-02T04:01:45;14.00;;;4.20;;
16826;SDS011;8530;49.540;8.576;2022-11-02T04:04:14;13.17;;;4.57;;
16826;SDS011;8530;49.540;8.576;2022-11-02T04:06:42;13.23;;;3.90;;
16826;SDS011;8530;49.540;8.576;2022-11-02T04:09:11;11.70;;;4.33;;
16826;SDS011;8530;49.540;8.576;2022-11-02T04:11:38;6.60;;;3.57;;
16826;SDS011;8530;49.540;8.576;2022-11-02T04:14:24;10.73;;;4.33;;
16826;SDS011;8530;49.540;8.576;2022-11-02T04:17:09;9.67;;;3.73;;
16826;SDS011;8530;49.540;8.576;2022-11-02T04:22:23;11.20;;;3.53;;
16826;SDS011;8530;49.540;8.576;2022-11-02T04:25:10;8.30;;;3.03;;
16826;SDS011;8530;49.540;8.576;2022-11-02T04:27:43;6.37;;;3.60;;
16826;SDS011;8530;49.540;8.576;2022-11-02T04:30:13;7.83;;;3.10;;
16826;SDS011;8530;49.540;8.576;2022-11-02T04:32:42;10.03;;;3.67;;
16826;SDS011;8530;49.540;8.576;2022-11-02T04:35:27;8.30;;;3.53;;
16826;SDS011;8530;49.540;8.576;2022-11-02T04:37:54;6.40;;;3.50;;
16826;SDS011;8530;49.540;8.576;2022-11-02T04:40:38;8.20;;;3.70;;
16826;SDS011;8530;49.540;8.576;2022-11-02T04:43:05;9.43;;;3.10;;
16826;SDS011;8530;49.540;8.576;2022-11-02T04:45:34;4.27;;;3.20;;
16826;SDS011;8530;49.540;8.576;2022-11-02T04:48:01;12.23;;;3.47;;
16826;SDS011;8530;49.540;8.576;2022-11-02T04:50:30;5.90;;;2.87;;
16826;SDS011;8530;49.540;8.576;2022-11-02T04:52:57;7.40;;;3.40;;
16826;SDS011;8530;49.540;8.576;2022-11-02T04:55:24;4.63;;;2.70;;
16826;SDS011;8530;49.540;8.576;2022-11-02T04:57:51;10.73;;;3.20;;
16826;SDS011;8530;49.540;8.576;2022-11-02T05:00:19;15.40;;;3.80;;
16826;SDS011;8530;49.540;8.576;2022-11-02T05:02:50;9.30;;;3.67;;
16826;SDS011;8530;49.540;8.576;2022-11-02T05:05:17;6.80;;;2.77;;
16826;SDS011;8530;49.540;8.576;2022-11-02T05:07:43;8.23;;;2.93;;
16826;SDS011;8530;49.540;8.576;2022-11-02T05:10:10;6.77;;;3.33;;
16826;SDS011;8530;49.540;8.576;2022-11-02T05:12:37;7.43;;;3.13;;
16826;SDS011;8530;49.540;8.576;2022-11-02T05:15:04;11.03;;;4.53;;
16826;SDS011;8530;49.540;8.576;2022-11-02T05:17:32;4.63;;;3.23;;
16826;SDS011;8530;49.540;8.576;2022-11-02T05:20:00;26.27;;;4.13;;
16826;SDS011;8530;49.540;8.576;2022-11-02T05:22:27;9.40;;;4.20;;
16826;SDS011;8530;49.540;8.576;2022-11-02T05:24:56;8.23;;;3.20;;
16826;SDS011;8530;49.540;8.576;2022-11-02T05:27:23;15.03;;;3.37;;
16826;SDS011;8530;49.540;8.576;2022-11-02T05:29:49;16.97;;;3.70;;
16826;SDS011;8530;49.540;8.576;2022-11-02T05:32:16;13.13;;;3.93;;
16826;SDS011;8530;49.540;8.576;2022-11-02T05:34:43;9.17;;;3.97;;
16826;SDS011;8530;49.540;8.576;2022-11-02T05:37:11;13.20;;;5.30;;
16826;SDS011;8530;49.540;8.576;2022-11-02T05:39:39;6.20;;;3.23;;
16826;SDS011;8530;49.540;8.576;2022-11-02T05:42:06;14.77;;;4.80;;
16826;SDS011;8530;49.540;8.576;2022-11-02T05:44:33;10.30;;;3.93;;
16826;SDS011;8530;49.540;8.576;2022-11-02T05:47:00;12.73;;;4.60;;
16826;SDS011;8530;49.540;8.576;2022-11-02T05:49:27;7.63;;;3.90;;
16826;SDS011;8530;49.540;8.576;2022-11-02T05:51:54;12.77;;;4.97;;
16826;SDS011;8530;49.540;8.576;2022-11-02T05:54:23;11.23;;;3.67;;
16826;SDS011;8530;49.540;8.576;2022-11-02T05:56:50;11.60;;;4.00;;
16826;SDS011;8530;49.540;8.576;2022-11-02T05:59:17;8.87;;;3.60;;
16826;SDS011;8530;49.540;8.576;2022-11-02T06:01:44;12.53;;;4.60;;
16826;SDS011;8530;49.540;8.576;2022-11-02T06:04:10;8.77;;;4.13;;
16826;SDS011;8530;49.540;8.576;2022-11-02T06:06:37;13.93;;;5.23;;
16826;SDS011;8530;49.540;8.576;2022-11-02T06:09:04;18.77;;;5.27;;
16826;SDS011;8530;49.540;8.576;2022-11-02T06:11:33;9.13;;;3.77;;
16826;SDS011;8530;49.540;8.576;2022-11-02T06:14:01;9.37;;;4.47;;
16826;SDS011;8530;49.540;8.576;2022-11-02T06:16:28;17.37;;;5.50;;
16826;SDS011;8530;49.540;8.576;2022-11-02T06:18:55;6.73;;;4.40;;
16826;SDS011;8530;49.540;8.576;2022-11-02T06:21:22;10.93;;;4.23;;
16826;SDS011;8530;49.540;8.576;2022-11-02T06:23:49;8.37;;;3.53;;
16826;SDS011;8530;49.540;8.576;2022-11-02T06:26:16;4.63;;;3.80;;
16826;SDS011;8530;49.540;8.576;2022-11-02T06:28:44;11.27;;;3.30;;
16826;SDS011;8530;49.540;8.576;2022-11-02T06:31:11;11.50;;;4.60;;
16826;SDS011;8530;49.540;8.576;2022-11-02T06:33:41;25.23;;;5.17;;
16826;SDS011;8530;49.540;8.576;2022-11-02T06:36:08;6.47;;;3.93;;
16826;SDS011;8530;49.540;8.576;2022-11-02T06:38:35;11.33;;;3.77;;
16826;SDS011;8530;49.540;8.576;2022-11-02T06:41:02;11.47;;;4.97;;
16826;SDS011;8530;49.540;8.576;2022-11-02T06:43:30;19.03;;;4.67;;
16826;SDS011;8530;49.540;8.576;2022-11-02T06:45:59;14.47;;;4.37;;
16826;SDS011;8530;49.540;8.576;2022-11-02T06:48:26;10.10;;;5.53;;
16826;SDS011;8530;49.540;8.576;2022-11-02T06:50:53;12.93;;;4.67;;
16826;SDS011;8530;49.540;8.576;2022-11-02T06:53:20;8.13;;;4.50;;
16826;SDS011;8530;49.540;8.576;2022-11-02T06:55:50;11.43;;;4.50;;
16826;SDS011;8530;49.540;8.576;2022-11-02T06:58:17;10.03;;;6.10;;
16826;SDS011;8530;49.540;8.576;2022-11-02T07:00:44;21.07;;;7.33;;
16826;SDS011;8530;49.540;8.576;2022-11-02T07:03:12;26.60;;;7.30;;
16826;SDS011;8530;49.540;8.576;2022-11-02T07:05:38;21.57;;;4.37;;
16826;SDS011;8530;49.540;8.576;2022-11-02T07:08:05;9.00;;;4.60;;
16826;SDS011;8530;49.540;8.576;2022-11-02T07:10:32;18.70;;;6.07;;
16826;SDS011;8530;49.540;8.576;2022-11-02T07:13:00;13.17;;;5.83;;
16826;SDS011;8530;49.540;8.576;2022-11-02T07:15:27;12.73;;;4.07;;
16826;SDS011;8530;49.540;8.576;2022-11-02T07:17:54;12.70;;;4.90;;
16826;SDS011;8530;49.540;8.576;2022-11-02T07:20:23;13.83;;;4.20;;
16826;SDS011;8530;49.540;8.576;2022-11-02T07:22:53;7.37;;;4.60;;
16826;SDS011;8530;49.540;8.576;2022-11-02T07:25:21;11.40;;;5.00;;
16826;SDS011;8530;49.540;8.576;2022-11-02T07:27:48;6.30;;;4.17;;
16826;SDS011;8530;49.540;8.576;2022-11-02T07:30:15;10.20;;;5.53;;
16826;SDS011;8530;49.540;8.576;2022-11-02T07:32:42;20.10;;;5.23;;
16826;SDS011;8530;49.540;8.576;2022-11-02T07:35:10;10.63;;;5.00;;
16826;SDS011;8530;49.540;8.576;2022-11-02T07:37:39;11.67;;;5.20;;
16826;SDS011;8530;49.540;8.576;2022-11-02T07:40:08;9.17;;;5.03;;
16826;SDS011;8530;49.540;8.576;2022-11-02T07:42:41;13.53;;;5.03;;
16826;SDS011;8530;49.540;8.576;2022-11-02T07:45:09;13.73;;;5.50;;
16826;SDS011;8530;49.540;8.576;2022-11-02T07:47:40;20.70;;;6.00;;
16826;SDS011;8530;49.540;8.576;2022-11-02T07:50:07;12.00;;;4.67;;
16826;SDS011;8530;49.540;8.576;2022-11-02T07:52:34;10.63;;;4.80;;
16826;SDS011;8530;49.540;8.576;2022-11-02T07:55:02;21.33;;;5.97;;
16826;SDS011;8530;49.540;8.576;2022-11-02T07:57:29;13.97;;;5.60;;
16826;SDS011;8530;49.540;8.576;2022-11-02T07:59:56;12.83;;;5.50;;
16826;SDS011;8530;49.540;8.576;2022-11-02T08:02:22;14.93;;;5.37;;
16826;SDS011;8530;49.540;8.576;2022-11-02T08:04:49;13.63;;;5.03;;
16826;SDS011;8530;49.540;8.576;2022-11-02T08:07:16;21.03;;;4.10;;
16826;SDS011;8530;49.540;8.576;2022-11-02T08:09:43;10.83;;;3.93;;
16826;SDS011;8530;49.540;8.576;2022-11-02T08:12:11;16.10;;;4.93;;
16826;SDS011;8530;49.540;8.576;2022-11-02T08:14:38;11.33;;;3.50;;
16826;SDS011;8530;49.540;8.576;2022-11-02T08:17:05;11.77;;;3.40;;
16826;SDS011;8530;49.540;8.576;2022-11-02T08:19:31;9.30;;;3.60;;
16826;SDS011;8530;49.540;8.576;2022-11-02T08:21:58;10.07;;;3.37;;
16826;SDS011;8530;49.540;8.576;2022-11-02T08:24:25;10.83;;;3.90;;
16826;SDS011;8530;49.540;8.576;2022-11-02T08:26:52;8.77;;;3.57;;
16826;SDS011;8530;49.540;8.576;2022-11-02T08:29:20;12.77;;;3.27;;
16826;SDS011;8530;49.540;8.576;2022-11-02T08:31:47;7.20;;;3.43;;
16826;SDS011;8530;49.540;8.576;2022-11-02T08:34:14;15.73;;;3.67;;
16826;SDS011;8530;49.540;8.576;2022-11-02T08:36:40;15.00;;;3.53;;
16826;SDS011;8530;49.540;8.576;2022-11-02T08:39:07;10.40;;;2.80;;
16826;SDS011;8530;49.540;8.576;2022-11-02T08:41:34;9.90;;;3.50;;
16826;SDS011;8530;49.540;8.576;2022-11-02T08:44:01;18.40;;;4.37;;
16826;SDS011;8530;49.540;8.576;2022-11-02T08:46:29;9.13;;;2.97;;
16826;SDS011;8530;49.540;8.576;2022-11-02T08:48:56;15.17;;;3.80;;
16826;SDS011;8530;49.540;8.576;2022-11-02T08:51:23;18.53;;;4.20;;
16826;SDS011;8530;49.540;8.576;2022-11-02T08:53:49;6.60;;;2.47;;
16826;SDS011;8530;49.540;8.576;2022-11-02T08:56:16;8.20;;;2.63;;
16826;SDS011;8530;49.540;8.576;2022-11-02T08:58:43;10.03;;;4.17;;
16826;SDS011;8530;49.540;8.576;2022-11-02T09:01:10;7.03;;;3.60;;
16826;SDS011;8530;49.540;8.576;2022-11-02T09:03:38;9.27;;;3.13;;
16826;SDS011;8530;49.540;8.576;2022-11-02T09:06:05;11.73;;;3.93;;
16826;SDS011;8530;49.540;8.576;2022-11-02T09:08:32;8.60;;;3.03;;
16826;SDS011;8530;49.540;8.576;2022-11-02T09:11:00;11.27;;;5.03;;
16826;SDS011;8530;49.540;8.576;2022-11-02T09:13:28;10.43;;;3.17;;
16826;SDS011;8530;49.540;8.576;2022-11-02T09:15:55;4.17;;;2.77;;
16826;SDS011;8530;49.540;8.576;2022-11-02T09:18:23;11.83;;;5.80;;
16826;SDS011;8530;49.540;8.576;2022-11-02T09:20:51;22.80;;;3.00;;
16826;SDS011;8530;49.540;8.576;2022-11-02T09:23:19;12.53;;;3.43;;
16826;SDS011;8530;49.540;8.576;2022-11-02T09:25:47;16.30;;;3.70;;
16826;SDS011;8530;49.540;8.576;2022-11-02T09:28:14;19.53;;;4.23;;
16826;SDS011;8530;49.540;8.576;2022-11-02T09:30:41;10.40;;;3.70;;
16826;SDS011;8530;49.540;8.576;2022-11-02T09:33:08;22.33;;;4.70;;
16826;SDS011;8530;49.540;8.576;2022-11-02T09:35:36;13.37;;;3.50;;
16826;SDS011;8530;49.540;8.576;2022-11-02T09:38:05;12.30;;;3.33;;
16826;SDS011;8530;49.540;8.576;2022-11-02T09:40:34;10.00;;;3.83;;
16826;SDS011;8530;49.540;8.576;2022-11-02T09:43:04;7.70;;;2.80;;
16826;SDS011;8530;49.540;8.576;2022-11-02T09:45:38;10.47;;;2.63;;
16826;SDS011;8530;49.540;8.576;2022-11-02T09:48:13;9.23;;;3.00;;
16826;SDS011;8530;49.540;8.576;2022-11-02T09:50:49;7.50;;;2.50;;
16826;SDS011;8530;49.540;8.576;2022-11-02T09:53:21;9.37;;;3.07;;
16826;SDS011;8530;49.540;8.576;2022-11-02T09:55:53;14.90;;;2.83;;
16826;SDS011;8530;49.540;8.576;2022-11-02T09:58:29;22.67;;;4.13;;
16826;SDS011;8530;49.540;8.576;2022-11-02T10:01:01;4.67;;;2.80;;
16826;SDS011;8530;49.540;8.576;2022-11-02T10:03:38;5.90;;;3.80;;
16826;SDS011;8530;49.540;8.576;2022-11-02T10:06:12;14.83;;;3.83;;
16826;SDS011;8530;49.540;8.576;2022-11-02T10:08:47;9.87;;;2.50;;
16826;SDS011;8530;49.540;8.576;2022-11-02T10:11:23;7.40;;;2.60;;
16826;SDS011;8530;49.540;8.576;2022-11-02T10:14:03;13.43;;;3.00;;
16826;SDS011;8530;49.540;8.576;2022-11-02T10:16:33;8.10;;;3.07;;
16826;SDS011;8530;49.540;8.576;2022-11-02T10:19:04;6.63;;;3.03;;
16826;SDS011;8530;49.540;8.576;2022-11-02T10:21:37;10.63;;;3.70;;
16826;SDS011;8530;49.540;8.576;2022-11-02T10:24:10;10.43;;;3.20;;
16826;SDS011;8530;49.540;8.576;2022-11-02T10:26:49;11.80;;;3.73;;
16826;SDS011;8530;49.540;8.576;2022-11-02T10:29:22;11.00;;;4.00;;
16826;SDS011;8530;49.540;8.576;2022-11-02T10:32:07;8.17;;;2.50;;
16826;SDS011;8530;49.540;8.576;2022-11-02T10:34:35;16.70;;;3.20;;
16826;SDS011;8530;49.540;8.576;2022-11-02T10:37:05;9.90;;;2.43;;
16826;SDS011;8530;49.540;8.576;2022-11-02T10:39:44;17.40;;;3.10;;
16826;SDS011;8530;49.540;8.576;2022-11-02T10:42:44;12.80;;;4.63;;
16826;SDS011;8530;49.540;8.576;2022-11-02T10:45:40;15.07;;;3.50;;
16826;SDS011;8530;49.540;8.576;2022-11-02T10:48:16;10.63;;;3.50;;
16826;SDS011;8530;49.540;8.576;2022-11-02T10:50:52;12.77;;;2.63;;
16826;SDS011;8530;49.540;8.576;2022-11-02T10:53:24;14.27;;;2.83;;
16826;SDS011;8530;49.540;8.576;2022-11-02T10:55:56;12.10;;;3.10;;
16826;SDS011;8530;49.540;8.576;2022-11-02T10:58:27;6.00;;;2.43;;
16826;SDS011;8530;49.540;8.576;2022-11-02T11:01:06;10.27;;;2.20;;
16826;SDS011;8530;49.540;8.576;2022-11-02T11:03:34;16.30;;;4.13;;
16826;SDS011;8530;49.540;8.576;2022-11-02T11:06:18;11.47;;;2.50;;
16826;SDS011;8530;49.540;8.576;2022-11-02T11:08:46;6.27;;;2.60;;
16826;SDS011;8530;49.540;8.576;2022-11-02T11:11:21;11.73;;;3.00;;
16826;SDS011;8530;49.540;8.576;2022-11-02T11:13:54;4.07;;;2.00;;
16826;SDS011;8530;49.540;8.576;2022-11-02T11:16:30;11.33;;;2.57;;
16826;SDS011;8530;49.540;8.576;2022-11-02T11:19:01;5.17;;;2.63;;
16826;SDS011;8530;49.540;8.576;2022-11-02T11:21:36;9.90;;;2.80;;
16826;SDS011;8530;49.540;8.576;2022-11-02T11:24:25;7.23;;;2.80;;
16826;SDS011;8530;49.540;8.576;2022-11-02T11:27:02;12.13;;;2.97;;
16826;SDS011;8530;49.540;8.576;2022-11-02T11:29:44;9.43;;;2.53;;
16826;SDS011;8530;49.540;8.576;2022-11-02T11:32:13;10.47;;;2.87;;
16826;SDS011;8530;49.540;8.576;2022-11-02T11:34:42;8.73;;;2.10;;
16826;SDS011;8530;49.540;8.576;2022-11-02T11:37:13;10.33;;;2.47;;
16826;SDS011;8530;49.540;8.576;2022-11-02T11:39:42;9.23;;;2.33;;
16826;SDS011;8530;49.540;8.576;2022-11-02T11:42:14;7.37;;;2.73;;
16826;SDS011;8530;49.540;8.576;2022-11-02T11:44:44;7.03;;;2.23;;
16826;SDS011;8530;49.540;8.576;2022-11-02T11:47:12;9.80;;;2.50;;
16826;SDS011;8530;49.540;8.576;2022-11-02T11:49:43;11.23;;;2.80;;
16826;SDS011;8530;49.540;8.576;2022-11-02T11:52:16;11.10;;;2.90;;
16826;SDS011;8530;49.540;8.576;2022-11-02T11:54:51;11.50;;;2.73;;
16826;SDS011;8530;49.540;8.576;2022-11-02T11:57:22;13.63;;;3.00;;
16826;SDS011;8530;49.540;8.576;2022-11-02T11:59:52;13.40;;;2.90;;
16826;SDS011;8530;49.540;8.576;2022-11-02T12:02:23;10.77;;;3.13;;
16826;SDS011;8530;49.540;8.576;2022-11-02T12:04:56;7.40;;;2.43;;
16826;SDS011;8530;49.540;8.576;2022-11-02T12:07:50;8.67;;;3.60;;
16826;SDS011;8530;49.540;8.576;2022-11-02T12:10:46;7.13;;;2.53;;
16826;SDS011;8530;49.540;8.576;2022-11-02T12:13:28;12.23;;;2.73;;
16826;SDS011;8530;49.540;8.576;2022-11-02T12:16:15;13.20;;;3.20;;
16826;SDS011;8530;49.540;8.576;2022-11-02T12:18:57;9.77;;;2.30;;
16826;SDS011;8530;49.540;8.576;2022-11-02T12:21:42;5.23;;;2.20;;
16826;SDS011;8530;49.540;8.576;2022-11-02T12:24:22;11.67;;;2.60;;
16826;SDS011;8530;49.540;8.576;2022-11-02T12:27:03;9.40;;;2.50;;
16826;SDS011;8530;49.540;8.576;2022-11-02T12:29:46;8.67;;;2.57;;
16826;SDS011;8530;49.540;8.576;2022-11-02T12:32:28;6.30;;;2.40;;
16826;SDS011;8530;49.540;8.576;2022-11-02T12:35:22;4.37;;;1.73;;
16826;SDS011;8530;49.540;8.576;2022-11-02T12:38:01;5.30;;;2.03;;
16826;SDS011;8530;49.540;8.576;2022-11-02T12:40:42;4.10;;;1.90;;
16826;SDS011;8530;49.540;8.576;2022-11-02T12:43:21;8.17;;;2.13;;
16826;SDS011;8530;49.540;8.576;2022-11-02T12:46:04;8.50;;;2.60;;
16826;SDS011;8530;49.540;8.576;2022-11-02T12:49:02;11.17;;;2.07;;
16826;SDS011;8530;49.540;8.576;2022-11-02T12:51:48;8.23;;;2.90;;
16826;SDS011;8530;49.540;8.576;2022-11-02T12:54:20;9.40;;;2.17;;
16826;SDS011;8530;49.540;8.576;2022-11-02T12:56:51;11.60;;;3.47;;
16826;SDS011;8530;49.540;8.576;2022-11-02T12:59:20;8.17;;;2.30;;
16826;SDS011;8530;49.540;8.576;2022-11-02T13:01:50;3.87;;;1.97;;
16826;SDS011;8530;49.540;8.576;2022-11-02T13:04:20;5.17;;;2.17;;
16826;SDS011;8530;49.540;8.576;2022-11-02T13:06:50;6.30;;;2.00;;
16826;SDS011;8530;49.540;8.576;2022-11-02T13:09:22;4.43;;;1.77;;
16826;SDS011;8530;49.540;8.576;2022-11-02T13:11:55;6.77;;;2.10;;
16826;SDS011;8530;49.540;8.576;2022-11-02T13:14:28;10.87;;;2.70;;
16826;SDS011;8530;49.540;8.576;2022-11-02T13:17:05;4.90;;;2.37;;
16826;SDS011;8530;49.540;8.576;2022-11-02T13:19:40;7.63;;;2.83;;
16826;SDS011;8530;49.540;8.576;2022-11-02T13:22:12;5.47;;;2.70;;
16826;SDS011;8530;49.540;8.576;2022-11-02T13:24:41;8.50;;;2.93;;
16826;SDS011;8530;49.540;8.576;2022-11-02T13:27:17;8.27;;;2.03;;
16826;SDS011;8530;49.540;8.576;2022-11-02T13:29:51;6.90;;;1.90;;
16826;SDS011;8530;49.540;8.576;2022-11-02T13:32:23;9.10;;;2.10;;
16826;SDS011;8530;49.540;8.576;2022-11-02T13:34:53;4.80;;;1.80;;
16826;SDS011;8530;49.540;8.576;2022-11-02T13:37:22;8.80;;;2.43;;
16826;SDS011;8530;49.540;8.576;2022-11-02T13:39:54;4.00;;;2.10;;
16826;SDS011;8530;49.540;8.576;2022-11-02T13:42:25;8.73;;;3.10;;
16826;SDS011;8530;49.540;8.576;2022-11-02T13:45:12;11.87;;;2.27;;
16826;SDS011;8530;49.540;8.576;2022-11-02T13:48:05;7.90;;;2.20;;
16826;SDS011;8530;49.540;8.576;2022-11-02T13:50:43;7.07;;;2.93;;
16826;SDS011;8530;49.540;8.576;2022-11-02T13:53:15;10.63;;;2.77;;
16826;SDS011;8530;49.540;8.576;2022-11-02T13:55:45;12.90;;;2.67;;
16826;SDS011;8530;49.540;8.576;2022-11-02T13:58:19;3.20;;;2.00;;
16826;SDS011;8530;49.540;8.576;2022-11-02T14:00:50;12.30;;;2.10;;
16826;SDS011;8530;49.540;8.576;2022-11-02T14:03:21;6.03;;;2.50;;
16826;SDS011;8530;49.540;8.576;2022-11-02T14:05:52;5.70;;;2.20;;
16826;SDS011;8530;49.540;8.576;2022-11-02T14:08:24;3.43;;;2.00;;
16826;SDS011;8530;49.540;8.576;2022-11-02T14:14:15;3.30;;;1.70;;
16826;SDS011;8530;49.540;8.576;2022-11-02T14:16:57;6.73;;;2.20;;
16826;SDS011;8530;49.540;8.576;2022-11-02T14:19:51;6.17;;;2.50;;
16826;SDS011;8530;49.540;8.576;2022-11-02T14:22:20;8.73;;;2.57;;
16826;SDS011;8530;49.540;8.576;2022-11-02T14:24:54;5.40;;;2.23;;
16826;SDS011;8530;49.540;8.576;2022-11-02T14:27:32;10.57;;;2.93;;
16826;SDS011;8530;49.540;8.576;2022-11-02T14:29:59;7.20;;;2.23;;
16826;SDS011;8530;49.540;8.576;2022-11-02T14:32:29;5.23;;;2.03;;
16826;SDS011;8530;49.540;8.576;2022-11-02T14:35:14;11.63;;;2.80;;
16826;SDS011;8530;49.540;8.576;2022-11-02T14:38:22;6.47;;;2.50;;
16826;SDS011;8530;49.540;8.576;2022-11-02T14:41:12;8.80;;;3.30;;
16826;SDS011;8530;49.540;8.576;2022-11-02T14:43:55;9.50;;;3.43;;
16826;SDS011;8530;49.540;8.576;2022-11-02T14:46:46;6.53;;;2.83;;
16826;SDS011;8530;49.540;8.576;2022-11-02T14:49:20;14.67;;;3.10;;
16826;SDS011;8530;49.540;8.576;2022-11-02T14:52:00;13.70;;;3.50;;
16826;SDS011;8530;49.540;8.576;2022-11-02T14:54:29;4.40;;;2.23;;
16826;SDS011;8530;49.540;8.576;2022-11-02T14:57:00;5.00;;;1.80;;
16826;SDS011;8530;49.540;8.576;2022-11-02T14:59:31;9.43;;;2.60;;
16826;SDS011;8530;49.540;8.576;2022-11-02T15:02:01;7.80;;;3.03;;
16826;SDS011;8530;49.540;8.576;2022-11-02T15:04:31;4.80;;;2.40;;
16826;SDS011;8530;49.540;8.576;2022-11-02T15:07:01;4.83;;;2.20;;
16826;SDS011;8530;49.540;8.576;2022-11-02T15:17:52;7.23;;;2.40;;
16826;SDS011;8530;49.540;8.576;2022-11-02T15:20:28;4.00;;;2.07;;
16826;SDS011;8530;49.540;8.576;2022-11-02T15:23:10;6.10;;;2.40;;
16826;SDS011;8530;49.540;8.576;2022-11-02T15:25:48;5.40;;;2.10;;
16826;SDS011;8530;49.540;8.576;2022-11-02T15:28:18;5.57;;;2.47;;
16826;SDS011;8530;49.540;8.576;2022-11-02T15:30:49;15.83;;;2.90;;
16826;SDS011;8530;49.540;8.576;2022-11-02T15:33:19;7.67;;;2.73;;
16826;SDS011;8530;49.540;8.576;2022-11-02T15:35:53;4.63;;;2.57;;